Time;durP1;ratioP1;P1;durP2;ratioP2;P2;SDS_P1;SDS_P2;PMS_P1;PMS_P2;Temp;Humidity;BMP_temperature;BMP_pressure;BME280_temperature;BME280_humidity;BME280_pressure;Samples;Min_cycle;Max_cycle;Signal;HPM_P1;HPM_P2
2022/03/23 00:03:57;;;;;;;80.10;43.40;;;;;;;-0.46;63.75;101547.61;215724;1274;139950;-79
2022/03/23 00:09:01;;;;;;;87.60;47.10;;;;;;;-0.60;64.23;101544.56;214886;1274;139916;-77
2022/03/23 00:14:07;;;;;;;73.20;40.20;;;;;;;-0.67;64.40;101540.89;215336;1274;140635;-78
2022/03/23 00:19:11;;;;;;;86.90;46.50;;;;;;;-0.75;64.67;101537.52;213925;1274;140378;-71
2022/03/23 00:24:15;;;;;;;118.40;54.90;;;;;;;-0.81;64.96;101540.26;215058;1274;143362;-71
2022/03/23 00:29:20;;;;;;;96.30;47.00;;;;;;;-0.77;65.23;101538.87;214389;1274;142142;-69
2022/03/23 00:34:24;;;;;;;103.40;55.70;;;;;;;-0.68;65.25;101539.43;214410;1274;164911;-70
2022/03/23 00:39:29;;;;;;;95.10;51.50;;;;;;;-0.64;65.34;101539.77;214379;1274;141298;-77
2022/03/23 00:44:33;;;;;;;114.60;60.80;;;;;;;-0.66;65.37;101540.79;213757;1274;141895;-73
2022/03/23 00:49:39;;;;;;;103.40;49.70;;;;;;;-0.71;65.50;101542.09;213979;1274;144345;-69
2022/03/23 00:54:44;;;;;;;81.30;42.20;;;;;;;-0.82;65.44;101538.16;214252;1273;141723;-68
2022/03/23 00:59:48;;;;;;;89.80;48.10;;;;;;;-0.96;65.36;101534.92;214266;1274;141395;-72
2022/03/23 01:04:53;;;;;;;97.70;53.10;;;;;;;-1.14;65.44;101533.98;214148;1274;142223;-72
2022/03/23 01:09:58;;;;;;;87.60;48.90;;;;;;;-1.21;65.80;101534.20;214848;1273;141743;-68
2022/03/23 01:15:03;;;;;;;92.30;48.10;;;;;;;-1.25;66.13;101535.17;213698;1274;140354;-71
2022/03/23 01:20:11;;;;;;;89.20;51.80;;;;;;;-1.37;66.27;101533.11;214645;1274;141221;-71
2022/03/23 01:25:18;;;;;;;99.80;49.20;;;;;;;-1.44;66.69;101526.81;214114;1274;141440;-72
2022/03/23 01:30:23;;;;;;;111.30;54.70;;;;;;;-1.44;66.83;101520.74;214479;1274;142736;-68
2022/03/23 01:35:28;;;;;;;107.00;54.70;;;;;;;-1.40;66.84;101518.82;215845;1274;142218;-73
2022/03/23 01:40:32;;;;;;;135.40;64.20;;;;;;;-1.32;66.87;101517.61;216429;1274;142261;-77
2022/03/23 01:45:39;;;;;;;132.50;63.40;;;;;;;-1.27;66.73;101514.94;215988;1273;141002;-78
2022/03/23 01:50:43;;;;;;;105.70;55.30;;;;;;;-1.27;66.89;101513.37;216359;1273;142714;-78
2022/03/23 01:55:48;;;;;;;99.00;54.60;;;;;;;-1.30;66.63;101513.08;216206;1274;140769;-76
2022/03/23 02:00:52;;;;;;;107.90;51.50;;;;;;;-1.37;66.80;101508.16;216256;1274;139795;-77
2022/03/23 02:05:56;;;;;;;106.50;60.20;;;;;;;-1.43;66.99;101505.31;216149;1274;140391;-77
2022/03/23 02:11:05;;;;;;;94.00;50.90;;;;;;;-1.45;67.04;101504.43;215802;1273;140909;-68
2022/03/23 02:16:09;;;;;;;114.40;55.70;;;;;;;-1.53;66.96;101501.02;214159;1274;140117;-75
2022/03/23 02:21:15;;;;;;;111.20;58.80;;;;;;;-1.60;67.23;101499.06;214883;1274;160850;-74
2022/03/23 02:26:22;;;;;;;115.80;52.40;;;;;;;-1.54;67.28;101500.77;213757;1276;140518;-64
2022/03/23 02:31:26;;;;;;;117.10;61.50;;;;;;;-1.59;67.10;101499.57;214214;1274;141609;-69
2022/03/23 02:36:32;;;;;;;92.70;47.20;;;;;;;-1.69;67.26;101498.73;213680;1274;139966;-67
2022/03/23 02:41:36;;;;;;;101.90;49.20;;;;;;;-1.78;67.71;101488.23;214156;1274;140251;-67
2022/03/23 02:46:41;;;;;;;107.20;57.50;;;;;;;-1.85;68.00;101484.36;214555;1274;141280;-67
2022/03/23 02:51:46;;;;;;;100.00;49.40;;;;;;;-1.96;68.19;101480.86;214384;1274;140294;-72
2022/03/23 03:02:30;;;;;;;107.80;52.50;;;;;;;-2.00;68.51;101475.70;214392;1274;142316;-69
2022/03/23 03:12:59;;;;;;;83.50;47.10;;;;;;;-1.91;68.73;101472.28;213893;1274;139799;-72
2022/03/23 03:18:03;;;;;;;106.80;58.10;;;;;;;-1.95;68.46;101473.60;214823;1274;140220;-72
2022/03/23 03:23:11;;;;;;;85.40;46.20;;;;;;;-2.02;68.28;101472.92;214926;1274;140202;-72
2022/03/23 03:28:16;;;;;;;110.00;56.50;;;;;;;-2.13;68.32;101470.06;213654;1274;141750;-68
2022/03/23 03:33:19;;;;;;;89.50;48.70;;;;;;;-2.19;68.43;101471.70;214844;1274;140874;-75
2022/03/23 03:38:24;;;;;;;94.00;48.90;;;;;;;-2.29;68.43;101472.95;213842;1274;140311;-75
2022/03/23 03:43:29;;;;;;;103.60;55.00;;;;;;;-2.30;68.84;101471.82;215342;1274;140768;-72
2022/03/23 03:48:34;;;;;;;85.10;43.70;;;;;;;-2.29;68.98;101474.55;215899;1274;141158;-75
2022/03/23 03:53:38;;;;;;;133.40;63.50;;;;;;;-2.32;68.92;101472.64;215024;1274;141280;-72
2022/03/23 03:58:44;;;;;;;118.00;60.60;;;;;;;-2.31;68.92;101474.16;216179;1274;140468;-76
2022/03/23 04:03:48;;;;;;;105.10;51.50;;;;;;;-2.28;69.03;101474.62;214508;1274;142270;-76
2022/03/23 04:08:53;;;;;;;82.50;42.90;;;;;;;-2.26;69.24;101472.56;215590;1274;140900;-73
2022/03/23 04:13:59;;;;;;;69.60;39.90;;;;;;;-2.30;69.26;101466.93;214437;1273;140971;-66
2022/03/23 04:19:05;;;;;;;93.30;48.60;;;;;;;-2.37;69.57;101465.48;214618;1272;141266;-65
2022/03/23 04:24:09;;;;;;;82.20;43.70;;;;;;;-2.42;69.61;101462.20;214264;1274;142251;-66
2022/03/23 04:29:14;;;;;;;70.40;39.70;;;;;;;-2.51;69.67;101466.02;213935;1274;141397;-67
2022/03/23 04:34:18;;;;;;;100.20;45.50;;;;;;;-2.54;69.90;101464.69;214799;1274;140430;-66
2022/03/23 04:39:22;;;;;;;98.70;57.20;;;;;;;-2.41;70.10;101461.80;214132;1274;140775;-66
2022/03/23 04:44:26;;;;;;;103.80;55.80;;;;;;;-2.26;70.09;101465.75;214571;1273;140458;-69
2022/03/23 04:49:30;;;;;;;91.70;46.90;;;;;;;-2.22;69.97;101466.91;214501;1274;140435;-68
2022/03/23 04:54:34;;;;;;;95.40;48.40;;;;;;;-2.32;69.72;101462.73;214558;1274;140482;-69
2022/03/23 04:59:38;;;;;;;89.40;41.30;;;;;;;-2.40;69.77;101457.51;213625;1274;140595;-64
2022/03/23 05:04:43;;;;;;;76.20;40.40;;;;;;;-2.45;69.83;101458.91;215453;1274;140610;-67
2022/03/23 05:09:46;;;;;;;78.60;45.50;;;;;;;-2.39;70.02;101456.73;214811;1273;140399;-71
2022/03/23 05:14:50;;;;;;;63.90;36.90;;;;;;;-2.19;70.12;101456.05;213681;1274;141945;-69
2022/03/23 05:19:53;;;;;;;91.90;47.70;;;;;;;-2.10;70.00;101461.08;214472;1273;140826;-71
2022/03/23 05:24:57;;;;;;;65.60;32.40;;;;;;;-2.03;70.22;101457.34;214273;1274;140703;-69
2022/03/23 05:30:04;;;;;;;85.90;41.00;;;;;;;-1.98;70.14;101455.36;214381;1274;139706;-77
2022/03/23 05:35:10;;;;;;;93.90;44.40;;;;;;;-1.85;70.51;101455.62;214044;1274;140721;-67
2022/03/23 05:40:14;;;;;;;82.40;46.40;;;;;;;-1.53;70.62;101449.23;215477;1274;140988;-69
2022/03/23 05:45:19;;;;;;;101.80;51.00;;;;;;;-1.21;70.61;101449.41;214211;1274;140976;-78
2022/03/23 05:50:24;;;;;;;68.60;36.40;;;;;;;-0.99;70.41;101444.59;214363;1274;140224;-72
2022/03/23 05:55:28;;;;;;;86.40;42.40;;;;;;;-0.93;70.48;101437.00;214711;1274;140466;-72
2022/03/23 06:00:32;;;;;;;82.60;45.30;;;;;;;-0.78;70.66;101433.51;215040;1275;140530;-76
2022/03/23 06:05:36;;;;;;;117.10;66.40;;;;;;;-0.53;70.82;101434.64;215938;1274;139724;-72
2022/03/23 06:10:46;;;;;;;107.60;55.00;;;;;;;-0.14;70.99;101432.74;216372;1272;140932;-76
2022/03/23 06:15:50;;;;;;;117.50;60.50;;;;;;;0.26;71.15;101433.63;215875;1272;141108;-72
2022/03/23 06:20:54;;;;;;;101.70;53.40;;;;;;;0.62;71.34;101437.80;216236;1271;140922;-72
2022/03/23 06:25:59;;;;;;;124.20;60.10;;;;;;;0.97;71.51;101439.52;215025;1274;229743;-68
2022/03/23 06:31:04;;;;;;;117.60;57.40;;;;;;;1.30;70.96;101442.27;215331;1274;140614;-66
2022/03/23 06:36:09;;;;;;;108.10;51.20;;;;;;;1.61;71.10;101438.52;215125;1274;162519;-68
2022/03/23 06:41:14;;;;;;;87.30;51.20;;;;;;;1.99;70.64;101438.96;214023;1274;142095;-68
2022/03/23 06:46:18;;;;;;;68.00;40.80;;;;;;;2.39;70.82;101440.44;213676;1274;141408;-72
2022/03/23 06:51:23;;;;;;;77.20;42.40;;;;;;;2.78;70.45;101442.40;215040;1274;139485;-76
2022/03/23 06:56:27;;;;;;;77.10;39.40;;;;;;;3.12;70.21;101439.87;214023;1274;141804;-72
2022/03/23 07:01:31;;;;;;;61.00;36.60;;;;;;;3.45;69.76;101435.36;214004;1273;142092;-69
2022/03/23 07:06:35;;;;;;;59.40;33.70;;;;;;;3.77;69.80;101431.84;214225;1274;141455;-76
2022/03/23 07:11:39;;;;;;;44.60;27.40;;;;;;;4.20;69.34;101430.78;214461;1274;153587;-71
2022/03/23 07:16:44;;;;;;;51.80;31.10;;;;;;;5.00;69.21;101426.48;213697;1274;150816;-67
2022/03/23 07:21:50;;;;;;;61.10;34.70;;;;;;;6.62;68.75;101417.92;214095;1274;140579;-72
2022/03/23 07:26:54;;;;;;;54.00;32.20;;;;;;;8.72;67.83;101412.58;213724;1274;140607;-72
2022/03/23 07:32:19;;;;;;;48.70;29.80;;;;;;;11.04;65.44;101408.31;214530;1274;150857;-68
2022/03/23 07:37:24;;;;;;;51.70;31.00;;;;;;;12.89;62.75;101400.36;213936;1274;141650;-68
2022/03/23 07:42:28;;;;;;;51.00;32.50;;;;;;;14.27;60.05;101392.46;214368;1274;140291;-68
2022/03/23 07:47:33;;;;;;;41.70;29.70;;;;;;;15.09;57.77;101394.10;213586;1274;152870;-74
2022/03/23 07:52:37;;;;;;;33.70;22.00;;;;;;;15.70;55.38;101392.73;214372;1274;141305;-75
2022/03/23 07:57:42;;;;;;;36.20;25.70;;;;;;;16.09;53.06;101388.11;214361;1274;141341;-72
2022/03/23 08:02:51;;;;;;;42.00;26.60;;;;;;;16.41;51.72;101387.96;214684;1274;140682;-72
2022/03/23 08:07:55;;;;;;;41.70;27.70;;;;;;;16.64;50.24;101384.48;215066;1274;140336;-75
2022/03/23 08:12:59;;;;;;;29.10;21.90;;;;;;;16.73;48.87;101377.60;216073;1274;140196;-65
2022/03/23 08:18:06;;;;;;;36.40;26.50;;;;;;;16.72;47.34;101372.15;215947;1274;139897;-73
2022/03/23 08:23:15;;;;;;;36.10;23.80;;;;;;;16.77;46.60;101371.23;215950;1274;140066;-73
2022/03/23 08:28:23;;;;;;;39.60;26.70;;;;;;;16.83;45.67;101368.59;216228;1274;142793;-70
2022/03/23 08:33:32;;;;;;;33.40;22.50;;;;;;;17.00;45.12;101369.88;216137;1274;141502;-72
2022/03/23 08:38:37;;;;;;;33.20;22.70;;;;;;;17.15;44.54;101368.91;216119;1274;141669;-72
2022/03/23 08:43:41;;;;;;;39.10;23.80;;;;;;;17.24;43.81;101366.66;215757;1273;139990;-69
2022/03/23 08:48:45;;;;;;;34.20;24.50;;;;;;;17.35;43.17;101357.73;213905;1274;140945;-70
2022/03/23 08:53:50;;;;;;;26.20;21.40;;;;;;;17.38;42.42;101351.15;214444;1274;140231;-71
2022/03/23 08:58:54;;;;;;;35.60;25.20;;;;;;;17.46;41.86;101352.58;215063;1274;141814;-71
2022/03/23 09:04:03;;;;;;;37.70;22.50;;;;;;;17.47;41.22;101350.33;214386;1274;139789;-66
2022/03/23 09:09:08;;;;;;;42.80;20.60;;;;;;;17.64;40.88;101345.40;214341;1274;140638;-69
2022/03/23 09:14:12;;;;;;;27.20;18.50;;;;;;;17.81;40.30;101342.14;215083;1274;140268;-69
2022/03/23 09:19:20;;;;;;;41.70;18.80;;;;;;;17.93;39.97;101333.77;214084;1274;141618;-75
2022/03/23 09:24:25;;;;;;;30.00;21.40;;;;;;;18.00;39.37;101327.85;214843;1273;208642;-73
2022/03/23 09:29:28;;;;;;;28.60;20.50;;;;;;;18.11;39.20;101326.39;214644;1274;140799;-72
2022/03/23 09:34:32;;;;;;;21.40;16.90;;;;;;;18.37;38.86;101319.67;213736;1274;141440;-72
2022/03/23 09:39:36;;;;;;;27.70;17.20;;;;;;;18.59;38.50;101311.42;213739;1274;140892;-71
2022/03/23 09:44:42;;;;;;;20.10;15.50;;;;;;;18.75;38.01;101308.94;213419;1274;141501;-70
2022/03/23 09:49:46;;;;;;;19.90;16.20;;;;;;;18.93;37.42;101298.46;213855;1274;142110;-71
2022/03/23 09:54:50;;;;;;;26.60;16.70;;;;;;;19.08;37.11;101288.25;213423;1274;1198413;-71
2022/03/23 09:59:55;;;;;;;27.30;19.10;;;;;;;19.22;36.44;101285.92;214588;1274;140203;-71
2022/03/23 10:05:56;;;;;;;29.70;17.80;;;;;;;19.43;36.11;101290.52;214783;1274;141747;-70
2022/03/23 10:11:23;;;;;;;20.80;15.70;;;;;;;19.45;34.90;101282.70;215184;1274;141182;-71
2022/03/23 10:17:11;;;;;;;36.90;14.80;;;;;;;19.55;34.36;101277.35;214767;1274;141623;-72
2022/03/23 10:22:15;;;;;;;37.30;15.40;;;;;;;19.72;33.77;101264.19;214595;1274;142043;-71
2022/03/23 10:27:22;;;;;;;18.90;15.10;;;;;;;19.83;33.67;101260.98;215643;1273;141041;-71
2022/03/23 10:32:38;;;;;;;21.20;15.50;;;;;;;19.93;32.67;101260.50;216226;1274;141735;-70
2022/03/23 10:37:43;;;;;;;24.10;16.00;;;;;;;20.00;32.12;101252.65;216253;1273;141167;-70
2022/03/23 10:42:50;;;;;;;16.90;12.90;;;;;;;20.14;32.19;101246.36;215383;1274;141592;-68
2022/03/23 10:47:54;;;;;;;23.70;15.40;;;;;;;20.25;31.79;101234.66;216120;1274;142294;-74
2022/03/23 10:53:04;;;;;;;18.10;12.70;;;;;;;20.34;30.82;101227.89;215517;1273;141226;-73
2022/03/23 10:58:23;;;;;;;23.20;13.40;;;;;;;20.40;30.17;101227.74;214416;1274;142399;-72
2022/03/23 11:03:48;;;;;;;19.00;13.80;;;;;;;20.47;29.58;101223.34;215240;1274;140674;-72
2022/03/23 11:08:52;;;;;;;24.10;15.50;;;;;;;20.46;29.08;101217.59;214829;1274;143087;-73
2022/03/23 11:19:26;;;;;;;24.40;15.90;;;;;;;20.53;28.68;101196.90;214824;1273;140969;-74
2022/03/23 11:24:46;;;;;;;17.40;12.90;;;;;;;20.55;28.57;101192.25;214157;1274;161857;-72
2022/03/23 11:29:53;;;;;;;16.10;9.90;;;;;;;20.70;28.25;101182.52;214010;1274;141212;-81
2022/03/23 11:34:57;;;;;;;10.80;9.50;;;;;;;20.73;27.47;101170.38;214983;1274;140706;-74
2022/03/23 11:40:02;;;;;;;14.90;6.90;;;;;;;20.81;26.75;101162.69;213362;1274;140681;-75
2022/03/23 11:45:07;;;;;;;8.30;6.50;;;;;;;20.90;26.21;101156.31;213450;1274;141941;-75
2022/03/23 11:50:30;;;;;;;8.70;7.30;;;;;;;20.99;25.67;101146.73;214284;1271;141098;-78
2022/03/23 11:55:38;;;;;;;11.10;7.70;;;;;;;20.96;25.21;101142.02;213555;1273;141524;-72
2022/03/23 12:00:50;;;;;;;8.60;6.40;;;;;;;20.96;24.66;101138.10;214458;1273;141606;-75
2022/03/23 12:05:53;;;;;;;5.00;3.90;;;;;;;21.03;24.51;101130.16;214591;1274;141045;-75
2022/03/23 12:10:57;;;;;;;10.60;7.10;;;;;;;21.04;23.96;101128.52;214602;1274;143642;-74
2022/03/23 12:16:02;;;;;;;7.70;6.70;;;;;;;21.03;23.72;101118.22;214844;1274;141754;-68
2022/03/23 12:21:10;;;;;;;20.10;13.10;;;;;;;21.06;23.25;101115.95;214618;1274;140854;-77
2022/03/23 12:26:24;;;;;;;13.80;11.90;;;;;;;20.98;22.99;101113.01;213525;1274;142269;-69
2022/03/23 12:31:37;;;;;;;23.50;18.70;;;;;;;20.93;22.89;101104.16;215218;1274;141390;-73
2022/03/23 12:36:59;;;;;;;21.40;17.60;;;;;;;21.03;22.98;101096.75;215265;1273;141514;-72
2022/03/23 12:42:12;;;;;;;11.60;9.30;;;;;;;21.03;22.92;101091.44;215075;1274;143259;-73
2022/03/23 12:47:22;;;;;;;11.90;10.70;;;;;;;21.04;22.94;101086.08;214559;1273;140964;-71
2022/03/23 12:57:52;;;;;;;18.10;16.20;;;;;;;21.02;22.53;101075.65;215456;1274;140221;-71
2022/03/23 13:03:04;;;;;;;40.00;34.40;;;;;;;20.99;22.39;101070.72;216021;1274;141934;-72
2022/03/23 13:08:33;;;;;;;7.90;6.20;;;;;;;21.00;21.88;101063.99;214589;1274;141187;-67
2022/03/23 13:13:39;;;;;;;12.30;11.10;;;;;;;20.92;21.59;101063.56;215367;1274;140780;-73
2022/03/23 13:18:44;;;;;;;10.20;9.10;;;;;;;20.87;21.31;101059.70;215118;1272;140135;-73
2022/03/23 13:23:50;;;;;;;20.90;18.50;;;;;;;20.82;21.22;101050.77;214652;1274;140487;-65
2022/03/23 13:28:58;;;;;;;24.80;22.10;;;;;;;20.75;21.51;101046.23;214400;1272;141734;-70
2022/03/23 13:34:23;;;;;;;10.70;9.60;;;;;;;20.74;21.65;101042.22;213923;1274;142221;-70
2022/03/23 13:39:28;;;;;;;27.90;10.30;;;;;;;20.65;21.39;101033.63;215172;1274;142589;-69
2022/03/23 13:45:19;;;;;;;19.60;12.00;;;;;;;20.55;21.51;101021.86;214366;1274;141461;-74
2022/03/23 13:49:58;;;;;;;17.40;13.60;;;;;;;20.57;21.51;101018.83;214577;1274;141583;-73
2022/03/23 13:55:04;;;;;;;14.00;12.40;;;;;;;20.41;21.37;101016.81;213317;1274;142102;-72
2022/03/23 14:00:24;;;;;;;17.90;15.60;;;;;;;20.30;21.53;101006.03;213759;1274;140103;-75
2022/03/23 14:05:31;;;;;;;12.40;9.80;;;;;;;20.18;21.43;101003.58;214361;1273;140134;-77
2022/03/23 14:10:37;;;;;;;14.60;13.10;;;;;;;20.07;21.46;100998.41;213984;1274;139765;-75
2022/03/23 14:15:57;;;;;;;10.40;8.50;;;;;;;19.96;21.70;100991.17;214529;1274;139869;-73
2022/03/23 14:21:03;;;;;;;13.90;11.50;;;;;;;19.92;21.77;100982.27;213296;1274;141745;-72
2022/03/23 14:26:23;;;;;;;21.00;12.50;;;;;;;19.86;21.88;100978.76;214291;1274;141186;-77
2022/03/23 14:31:28;;;;;;;22.00;16.10;;;;;;;19.81;21.89;100968.85;213981;1273;142189;-76
2022/03/23 14:36:32;;;;;;;19.60;12.20;;;;;;;19.78;22.24;100963.16;214005;1274;140153;-75
2022/03/23 14:41:36;;;;;;;14.10;11.30;;;;;;;19.72;22.09;100960.69;214089;1274;140650;-80
2022/03/23 14:46:43;;;;;;;18.20;13.50;;;;;;;19.61;21.94;100953.94;214982;1274;140241;-78
2022/03/23 14:52:06;;;;;;;15.50;10.60;;;;;;;19.40;21.81;100948.69;215124;1274;141360;-74
2022/03/23 14:57:11;;;;;;;36.40;32.50;;;;;;;19.29;21.87;100939.49;214979;1274;140637;-77
2022/03/23 15:02:16;;;;;;;24.40;19.00;;;;;;;19.18;21.87;100932.80;216011;1274;140072;-78
2022/03/23 15:18:07;;;;;;;51.50;37.10;;;;;;;18.87;21.81;100920.02;214359;1274;140898;-79
2022/03/23 15:23:11;;;;;;;19.00;16.10;;;;;;;18.74;21.82;100916.58;214807;1274;140478;-79
2022/03/23 15:28:16;;;;;;;10.90;8.80;;;;;;;18.64;21.79;100913.22;213118;1274;139959;-72
2022/03/23 15:33:20;;;;;;;16.70;9.80;;;;;;;18.54;21.93;100907.99;214611;1274;141489;-80
2022/03/23 15:38:23;;;;;;;18.10;12.50;;;;;;;18.42;21.90;100901.97;214773;1275;141520;-74
2022/03/23 15:43:29;;;;;;;15.40;12.00;;;;;;;18.28;22.01;100897.64;213380;1274;140883;-74
2022/03/23 15:48:33;;;;;;;74.80;47.00;;;;;;;18.18;21.99;100896.95;214674;1272;140934;-75
2022/03/23 15:53:44;;;;;;;41.70;26.10;;;;;;;18.06;22.22;100890.52;215080;1274;140449;-76
2022/03/23 15:58:51;;;;;;;32.70;21.10;;;;;;;17.91;22.30;100888.13;214499;1274;139687;-79
2022/03/23 16:03:56;;;;;;;11.40;9.00;;;;;;;17.75;22.52;100888.73;213449;1274;140143;-78
2022/03/23 16:09:00;;;;;;;16.60;8.90;;;;;;;17.58;22.68;100887.10;215235;1274;140465;-77
2022/03/23 16:14:03;;;;;;;15.00;9.70;;;;;;;17.37;23.02;100881.37;213715;1274;142068;-75
2022/03/23 16:19:07;;;;;;;19.50;8.60;;;;;;;17.15;23.58;100885.67;214767;1274;140203;-76
2022/03/23 16:24:11;;;;;;;8.40;7.20;;;;;;;16.84;24.08;100886.50;213122;1274;141649;-78
2022/03/23 16:29:15;;;;;;;15.90;9.10;;;;;;;16.55;24.39;100891.66;213548;1274;234699;-78
2022/03/23 16:34:19;;;;;;;21.90;11.00;;;;;;;16.21;25.08;100894.81;213509;1274;140798;-78
2022/03/23 16:39:24;;;;;;;17.30;9.40;;;;;;;15.93;25.44;100895.55;213801;1274;141889;-79
2022/03/23 16:44:29;;;;;;;11.60;9.50;;;;;;;15.68;25.71;100890.11;213638;1274;141129;-76
2022/03/23 16:49:34;;;;;;;12.90;8.60;;;;;;;15.45;25.98;100888.48;213928;1274;141302;-71
2022/03/23 16:54:38;;;;;;;18.50;11.20;;;;;;;15.18;26.22;100885.22;214822;1274;141211;-79
2022/03/23 16:59:42;;;;;;;24.30;14.70;;;;;;;14.91;26.47;100885.16;216221;1274;141076;-78
2022/03/23 17:15:38;;;;;;;25.50;12.80;;;;;;;13.96;27.71;100888.27;216118;1274;141468;-78
2022/03/23 17:20:43;;;;;;;22.70;9.00;;;;;;;13.55;28.42;100894.53;214570;1274;140545;-71
2022/03/23 17:25:50;;;;;;;16.00;8.40;;;;;;;13.14;29.17;100897.09;214514;1274;141435;-75
2022/03/23 17:30:57;;;;;;;15.00;8.50;;;;;;;12.73;29.25;100899.47;214980;1274;144004;-73
2022/03/23 17:36:02;;;;;;;12.00;7.90;;;;;;;12.33;30.21;100902.83;213462;1274;140760;-78
2022/03/23 17:41:07;;;;;;;14.80;7.80;;;;;;;11.95;31.40;100910.66;215249;1274;140596;-75
2022/03/23 17:46:11;;;;;;;19.40;12.10;;;;;;;11.60;31.96;100911.18;215118;1274;140343;-75
2022/03/23 17:51:16;;;;;;;26.80;14.50;;;;;;;11.24;33.02;100910.98;214428;1274;140279;-74
2022/03/23 17:56:22;;;;;;;35.20;21.80;;;;;;;10.90;33.85;100911.29;215052;1274;140899;-78
2022/03/23 18:01:28;;;;;;;54.40;30.80;;;;;;;10.55;34.64;100910.30;214358;1274;140415;-74
2022/03/23 18:06:33;;;;;;;91.70;44.60;;;;;;;10.27;35.05;100910.01;213795;1274;141999;-75
2022/03/23 18:11:39;;;;;;;23.90;14.10;;;;;;;9.98;35.64;100908.64;213866;1274;143302;-73
2022/03/23 18:16:45;;;;;;;24.00;14.70;;;;;;;9.69;36.40;100913.44;215032;1274;141304;-78
2022/03/23 18:21:50;;;;;;;16.60;10.80;;;;;;;9.44;37.01;100913.88;213263;1274;140645;-73
2022/03/23 18:26:56;;;;;;;29.50;15.70;;;;;;;9.20;37.46;100912.90;214240;1274;143091;-76
2022/03/23 18:32:01;;;;;;;34.80;16.60;;;;;;;8.94;37.95;100911.33;214566;1274;139812;-74
2022/03/23 18:37:04;;;;;;;23.90;10.50;;;;;;;8.65;38.80;100913.01;214571;1274;139779;-71
2022/03/23 18:42:08;;;;;;;34.10;17.70;;;;;;;8.26;39.39;100915.98;213731;1274;139848;-78
2022/03/23 18:47:12;;;;;;;18.00;11.50;;;;;;;8.00;39.62;100918.96;214110;1274;140802;-76
2022/03/23 18:52:35;;;;;;;25.70;13.90;;;;;;;7.79;40.37;100916.77;214971;1274;139997;-78
2022/03/23 18:57:41;;;;;;;22.60;13.90;;;;;;;7.62;40.66;100915.64;215683;1274;140416;-79
2022/03/23 19:02:45;;;;;;;23.60;12.60;;;;;;;7.46;41.45;100919.41;215441;1274;151036;-76
2022/03/23 19:07:52;;;;;;;51.80;17.70;;;;;;;7.25;41.86;100925.27;216112;1274;139566;-73
2022/03/23 19:12:57;;;;;;;38.50;22.30;;;;;;;7.01;42.54;100923.10;216112;1274;141489;-75
2022/03/23 19:18:02;;;;;;;36.70;22.00;;;;;;;6.80;42.64;100929.02;214794;1274;139644;-70
2022/03/23 19:23:08;;;;;;;82.40;45.60;;;;;;;6.60;43.56;100929.78;215136;1274;141516;-72
2022/03/23 19:28:12;;;;;;;73.10;35.30;;;;;;;6.42;43.76;100931.48;214988;1274;141333;-74
2022/03/23 19:33:16;;;;;;;55.20;30.30;;;;;;;6.24;44.57;100934.84;215115;1274;140308;-74
2022/03/23 19:38:22;;;;;;;51.90;24.10;;;;;;;6.02;44.63;100938.16;215249;1274;140361;-69
2022/03/23 19:43:26;;;;;;;47.20;24.60;;;;;;;5.87;45.44;100940.34;214049;1274;142107;-72
2022/03/23 19:48:32;;;;;;;51.30;23.00;;;;;;;5.73;45.82;100939.13;214547;1274;140827;-75
2022/03/23 19:53:37;;;;;;;43.20;19.80;;;;;;;5.61;45.86;100950.33;213382;1274;164969;-72
2022/03/23 19:58:43;;;;;;;55.40;24.90;;;;;;;5.46;46.19;100948.73;214776;1274;141114;-78
2022/03/23 20:03:49;;;;;;;58.80;32.30;;;;;;;5.29;47.02;100952.20;214183;1273;141540;-76
2022/03/23 20:08:54;;;;;;;95.10;47.90;;;;;;;5.13;47.23;100958.19;213324;1274;140820;-76
2022/03/23 20:13:59;;;;;;;77.20;38.40;;;;;;;5.03;47.67;100961.60;214202;1274;141248;-76
2022/03/23 20:19:05;;;;;;;63.70;28.00;;;;;;;4.92;48.10;100966.71;214274;1274;141676;-67
2022/03/23 20:24:10;;;;;;;54.90;29.60;;;;;;;4.73;48.45;100965.05;213781;1274;140444;-77
2022/03/23 20:29:16;;;;;;;148.00;75.80;;;;;;;4.61;49.13;100965.92;214564;1274;140866;-77
2022/03/23 20:34:24;;;;;;;113.30;55.50;;;;;;;4.49;49.21;100969.46;215142;1274;141249;-74
2022/03/23 20:39:30;;;;;;;98.80;49.50;;;;;;;4.37;49.51;100971.27;214763;1274;140197;-81
2022/03/23 20:44:35;;;;;;;89.90;48.00;;;;;;;4.29;49.71;100972.67;213392;1274;140321;-76
2022/03/23 20:49:40;;;;;;;98.60;51.40;;;;;;;4.21;50.22;100974.56;215099;1274;141673;-78
2022/03/23 20:54:48;;;;;;;69.10;34.50;;;;;;;4.14;50.42;100980.29;214366;1274;141056;-76
2022/03/23 20:59:54;;;;;;;97.80;49.10;;;;;;;4.03;51.18;100988.77;214464;1274;139796;-81
2022/03/23 21:04:59;;;;;;;64.40;33.90;;;;;;;3.89;51.25;100990.30;215347;1274;140366;-76
2022/03/23 21:10:04;;;;;;;100.70;51.40;;;;;;;3.79;51.35;100987.15;216017;1274;139959;-75
2022/03/23 21:15:09;;;;;;;68.50;34.40;;;;;;;3.75;51.81;100992.34;216170;1274;139966;-73
2022/03/23 21:20:15;;;;;;;78.30;43.50;;;;;;;3.71;52.43;100993.19;216175;1274;140478;-73
2022/03/23 21:25:21;;;;;;;67.60;37.00;;;;;;;3.70;52.22;100991.17;215595;1274;140701;-77
2022/03/23 21:30:27;;;;;;;102.70;55.70;;;;;;;3.77;52.24;100990.88;214812;1274;140208;-75
2022/03/23 21:35:31;;;;;;;42.80;24.30;;;;;;;3.86;52.24;100990.09;215358;1274;139894;-79
2022/03/23 21:40:36;;;;;;;49.30;27.40;;;;;;;3.98;51.26;100988.46;213689;1274;139582;-75
2022/03/23 21:45:42;;;;;;;136.00;78.90;;;;;;;4.20;50.65;100987.17;214988;1274;140230;-74
2022/03/23 21:50:47;;;;;;;57.40;28.10;;;;;;;4.37;50.36;100981.98;214291;1274;210560;-74
2022/03/23 21:55:52;;;;;;;80.40;44.00;;;;;;;4.46;49.97;100985.50;213204;1274;677440;-75
2022/03/23 22:00:56;;;;;;;60.70;33.40;;;;;;;4.51;49.52;100990.25;214228;1272;141799;-69
2022/03/23 22:06:02;;;;;;;49.10;25.50;;;;;;;4.55;49.35;100989.83;214656;1274;140001;-76
2022/03/23 22:11:06;;;;;;;50.90;27.70;;;;;;;4.51;49.47;100995.14;213685;1274;141099;-76
2022/03/23 22:16:11;;;;;;;47.90;29.60;;;;;;;4.46;49.45;100993.20;214610;1274;140707;-73
2022/03/23 22:21:16;;;;;;;45.00;25.70;;;;;;;4.39;49.89;100996.95;214233;1274;140207;-69
2022/03/23 22:26:21;;;;;;;49.70;31.20;;;;;;;4.31;50.06;100997.92;214066;1274;141819;-71
2022/03/23 22:31:25;;;;;;;39.80;21.80;;;;;;;4.24;50.03;100997.13;214043;1274;141480;-71
2022/03/23 22:36:31;;;;;;;46.00;27.40;;;;;;;4.19;49.82;100995.17;214220;1274;140406;-73
2022/03/23 22:41:36;;;;;;;53.20;31.70;;;;;;;4.19;49.88;100992.94;214985;1274;140144;-73
2022/03/23 22:46:42;;;;;;;29.90;22.00;;;;;;;4.18;49.91;100990.42;214675;1274;141484;-75
2022/03/23 22:51:48;;;;;;;38.80;23.80;;;;;;;4.18;49.72;100991.81;215131;1274;141201;-75
2022/03/23 22:56:54;;;;;;;40.00;22.70;;;;;;;4.17;49.82;100994.17;215498;1274;140738;-70
2022/03/23 23:01:59;;;;;;;35.10;19.70;;;;;;;4.15;49.48;101000.39;214851;1274;141980;-71
2022/03/23 23:07:17;;;;;;;38.80;22.90;;;;;;;4.12;49.67;101002.38;215928;1274;140593;-83
2022/03/23 23:12:21;;;;;;;40.60;19.60;;;;;;;4.06;50.06;101002.04;216106;1274;140230;-77
2022/03/23 23:17:26;;;;;;;42.10;23.80;;;;;;;4.00;50.39;101002.64;216031;1274;139648;-77
2022/03/23 23:22:30;;;;;;;32.60;22.20;;;;;;;3.97;50.28;100999.31;216431;1272;140309;-78
2022/03/23 23:27:41;;;;;;;38.50;23.30;;;;;;;3.95;50.35;101002.55;215848;1274;140371;-79
2022/03/23 23:32:47;;;;;;;35.50;21.40;;;;;;;3.87;50.97;101004.11;215177;1274;140224;-68